K9NZF-2 Weather Reports


Display with metric or nautical units.
time (UTC)temp
F
wind
direction
speed
MPH
gust
MPH
rain 1hr
in
rain 24hr
in
rain mn
in
humidity
%
barometer
mb
20190418102205 61 217 13.0 24.0 0.01 0.01 0.01 82 1005.3
20190418101704 62 219 13.0 24.0 0.01 0.01 0.01 78 1005.0
20190418101205 64 207 11.0 16.0 0.00 0.00 0.00 71 1004.6
20190418094705 63 200 9.0 15.0 0.00 0.00 0.00 67 1004.7
20190418094205 63 188 9.0 15.0 0.00 0.00 0.00 67 1004.7
20190418093205 63 185 8.0 14.0 0.00 0.00 0.00 67 1004.9
20190418092705 62 194 8.0 14.0 0.00 0.00 0.00 68 1005.4
20190418092205 63 195 9.0 13.0 0.00 0.00 0.00 67 1005.2
20190418085705 62 179 7.0 11.0 0.00 0.00 0.00 69 1004.6
20190418083205 62 205 6.0 10.0 0.00 0.00 0.00 70 1004.7
20190418082705 62 205 7.0 10.0 0.00 0.00 0.00 69 1004.8
20190418081205 62 205 6.0 11.0 0.00 0.00 0.00 70 1005.0
20190418080705 61 191 6.0 11.0 0.00 0.00 0.00 71
20190418075205 62 204 7.0 11.0 0.00 0.00 0.00 70 1004.6
20190418074705 62 195 7.0 11.0 0.00 0.00 0.00 69 1004.6
20190418074204 62 171 7.0 11.0 0.00 0.00 0.00 69 1004.6
20190418073704 62 179 7.0 11.0 0.00 0.00 0.00 69 1004.8
20190418072705 62 218 7.0 11.0 0.00 0.00 0.00 69 1004.8
20190418072205 62 191 7.0 11.0 0.00 0.00 0.00 70 1004.7
20190418070705 63 181 6.0 13.0 0.00 0.00 0.00 69 1005.0
20190418064205 63 212 7.0 11.0 0.00 0.00 0.00 68 1005.4
20190418062205 64 212 8.0 14.0 0.00 0.00 0.00 67 1005.4
20190418060705 64 179 9.0 15.0 0.00 0.00 0.00 67 1005.4
20190418060205 64 190 9.0 14.0 0.00 0.00 0.00 67 1005.3
20190418055705 64 198 8.0 14.0 0.00 0.00 0.00 68 1005.3
20190418054705 64 210 6.0 10.0 0.00 0.00 0.00 68 1005.4
20190418053205 64 192 7.0 12.0 0.00 0.00 0.00 66 1005.7
20190418052204 65 192 7.0 12.0 0.00 0.00 0.00 65 1006.0
20190418051205 65 187 8.0 13.0 0.00 0.00 0.00 64 1006.3
20190418050205 65 220 8.0 14.0 0.00 0.00 0.00 65 1006.5
20190418045704 65 174 8.0 13.0 0.00 0.00 0.00 65 1006.5
20190418045204 65 214 7.0 13.0 0.00 0.00 0.00 65
20190418044705 65 191 7.0 11.0 0.00 0.00 0.00 66 1006.4
20190418043704 64 190 7.0 11.0 0.00 0.00 0.00 66 1006.4
20190418041205 65 204 7.0 14.0 0.00 0.00 0.00 65
20190418040704 65 205 8.0 14.0 0.00 0.00 0.00 64 1006.4
20190418040205 65 164 8.0 14.0 0.00 0.00 0.00 64 1006.5
20190418035705 65 205 9.0 14.0 0.00 0.00 0.00 64 1006.6
20190418033205 66 182 9.0 15.0 0.00 0.00 0.00 62 1006.7
20190418032205 66 198 10.0 15.0 0.00 0.00 0.00 62
20190418031205 67 175 10.0 19.0 0.00 0.00 0.00 61 1006.8
20190418030705 67 201 11.0 19.0 0.00 0.00 0.00 61 1006.8
20190418024705 68 175 12.0 18.0 0.00 0.00 0.00 60
20190418024205 68 184 12.0 19.0 0.00 0.00 0.00 60
20190418023705 68 189 12.0 22.0 0.00 0.00 0.00 60 1007.1
20190418023205 68 176 13.0 22.0 0.00 0.00 0.00 59 1007.1
20190418022705 69 195 13.0 20.0 0.00 0.00 0.00 60 1007.1
20190418022205 68 169 12.0 19.0 0.00 0.00 0.00 60 1007.1
20190418021705 68 190 12.0 19.0 0.00 0.00 0.00 61 1007.0
20190418021206 69 169 12.0 18.0 0.00 0.00 0.00 61 1007.0
20190418015205 68 186 12.0 19.0 0.00 0.00 0.00 62 1006.9
20190418014704 68 175 12.0 19.0 0.00 0.00 0.00 63 1006.9
20190418014206 69 183 12.0 19.0 0.00 0.00 0.00 62 1006.9
20190418013205 68 176 10.0 16.0 0.00 0.00 0.00 63 1006.7
20190418011705 69 198 7.0 13.0 0.00 0.00 0.00 62
20190418010705 69 149 5.0 12.0 0.00 0.00 0.00 61 1006.3
20190418010205 69 136 6.0 12.0 0.00 0.00 0.00 60 1006.3
20190418005710 69 166 7.0 12.0 0.00 0.00 0.00 59 1006.5
20190418002205 70 174 8.0 14.0 0.00 0.00 0.00 56 1006.8
20190418001705 71 154 7.0 14.0 0.00 0.00 0.00 56
20190418001205 71 156 6.0 14.0 0.00 0.00 0.00 56 1006.8
20190418000705 71 137 7.0 14.0 0.00 0.00 0.00 56
20190418000205 71 165 8.0 17.0 0.00 0.00 0.00 55 1006.9
20190417235205 72 141 10.0 19.0 0.00 0.00 0.00 54 1007.2
20190417233705 72 195 14.0 22.0 0.00 0.00 0.00 53
20190417233205 72 165 13.0 22.0 0.00 0.00 0.00 52 1007.4
20190417232705 73 184 13.0 22.0 0.00 0.00 0.00 52 1007.4
20190417232205 73 186 13.0 22.0 0.00 0.00 0.00 51 1007.3
20190417231704 73 159 11.0 18.0 0.00 0.00 0.00 51 1007.4
20190417231205 72 188 9.0 17.0 0.00 0.00 0.00 53 1007.4
20190417225705 72 174 11.0 24.0 0.00 0.00 0.00 53 1007.9
20190417224711 73 148 11.0 20.0 0.00 0.00 0.00 51 1007.8
20190417224205 74 169 10.0 22.0 0.00 0.00 0.00 52 1007.9
20190417223204 74 173 10.0 22.0 0.00 0.00 0.00 52 1008.1
20190417222705 74 162 11.0 21.0 0.00 0.00 0.00 52 1008.2
20190417222205 74 169 11.0 21.0 0.00 0.00 0.00 52 1008.1
20190417220205 73 203 12.0 20.0 0.00 0.00 0.00 55 1008.5
20190417215705 73 168 12.0 19.0 0.00 0.00 0.00 53 1008.5
20190417215205 73 203 12.0 19.0 0.00 0.00 0.00 54
20190417214705 73 175 12.0 19.0 0.00 0.00 0.00 55
20190417214205 73 189 11.0 17.0 0.00 0.00 0.00 55 1008.6
20190417213705 73 198 10.0 19.0 0.00 0.00 0.00 54 1008.7
20190417213212 72 176 12.0 19.0 0.00 0.00 0.00 55 1008.7
20190417212213 72 174 11.0 17.0 0.00 0.00 0.00 56 1008.8
20190417211707 72 191 10.0 18.0 0.00 0.00 0.00 59 1008.9
20190417211206 72 167 11.0 18.0 0.00 0.00 0.00 56 1008.8
20190417210713 71 191 11.0 18.0 0.00 0.00 0.00 58 1008.9
20190417210207 71 159 9.0 15.0 0.00 0.00 0.00 59 1008.9
20190417205706 71 168 8.0 16.0 0.00 0.00 0.00 59 1009.1
20190417205208 71 184 9.0 16.0 0.00 0.00 0.00 58 1009.2
20190417203207 71 110 7.0 15.0 0.00 0.00 0.00 62 1009.2
20190417202706 70 164 7.0 15.0 0.00 0.00 0.00 61
20190417202206 69 124 7.0 15.0 0.00 0.00 0.00 61 1009.4
20190417201706 69 171 6.0 12.0 0.00 0.00 0.00 60 1009.6
20190417200707 68 140 7.0 14.0 0.00 0.00 0.00 63 1009.8
20190417193205 68 207 7.0 15.0 0.00 0.00 0.00 64 1010.6
20190417192204 68 205 9.0 18.0 0.00 0.00 0.00 64 1011.0
20190417191704 68 210 11.0 18.0 0.00 0.00 0.00 65 1011.3
20190417185705 68 197 11.0 23.0 0.00 0.00 0.00 63 1011.4
20190417184704 68 179 11.0 23.0 0.00 0.00 0.00 63 1011.1
20190417184205 69 174 9.0 18.0 0.00 0.00 0.00 64 1011.3
20190417183704 68 173 10.0 15.0 0.00 0.00 0.00 62
20190417180705 69 175 8.0 15.0 0.00 0.00 0.00 63 1011.5
20190417180205 69 153 7.0 13.0 0.00 0.00 0.00 62 1011.7
20190417175705 69 186 7.0 11.0 0.00 0.00 0.00 62 1011.7
20190417175205 69 158 6.0 11.0 0.00 0.00 0.00 65 1011.9
20190417174705 68 146 6.0 12.0 0.00 0.00 0.00 64 1012.1
20190417174205 68 174 7.0 12.0 0.00 0.00 0.00 66 1012.2
20190417171704 67 175 6.0 10.0 0.00 0.00 0.00 65 1012.8
20190417171205 67 181 6.0 10.0 0.00 0.00 0.00 66
20190417170705 66 215 6.0 9.0 0.00 0.00 0.00 66
20190417170205 66 200 4.0 8.0 0.00 0.00 0.00 69 1013.2
20190417165705 66 195 3.0 7.0 0.00 0.00 0.00 68 1013.0
20190417165205 66 182 4.0 11.0 0.00 0.00 0.00 65 1012.7
20190417164205 66 184 7.0 14.0 0.00 0.00 0.00 67 1013.2
20190417163204 66 227 8.0 15.0 0.00 0.00 0.00 65 1013.6
20190417162705 65 199 7.0 15.0 0.00 0.00 0.00 67 1013.7
20190417162204 65 191 6.0 12.0 0.00 0.00 0.00 66 1013.8
20190417161205 65 210 6.0 14.0 0.00 0.00 0.00 69
20190417160705 65 228 8.0 14.0 0.00 0.00 0.00 66 1013.9
20190417160205 65 212 9.0 13.0 0.00 0.00 0.00 66
20190417154205 64 215 8.0 14.0 0.00 0.00 0.00 68 1013.8
20190417153704 64 193 8.0 14.0 0.00 0.00 0.00 68 1013.8
20190417153205 64 181 7.0 13.0 0.00 0.00 0.00 66 1013.8
20190417152206 64 199 8.0 13.0 0.00 0.00 0.00 67 1013.9
20190417145206 63 206 5.0 9.0 0.00 0.00 0.00 71 1013.8
20190417144704 63 177 4.0 9.0 0.00 0.00 0.00 70 1013.7
20190417144204 63 190 4.0 8.0 0.00 0.00 0.00 70 1013.7
20190417143705 63 204 4.0 9.0 0.00 0.00 0.00 70 1013.6
20190417142205 62 174 6.0 11.0 0.00 0.00 0.00 71 1014.0
20190417140705 62 166 5.0 11.0 0.00 0.00 0.00 71 1014.0
20190417140205 62 155 5.0 9.0 0.00 0.00 0.00 70 1014.0
20190417135705 62 181 4.0 7.0 0.00 0.00 0.00 70 1014.0
20190417135205 62 146 2.0 7.0 0.00 0.00 0.00 71 1014.0
20190417134705 61 153 2.0 5.0 0.00 0.00 0.00 72 1014.0
20190417134205 61 165 1.0 5.0 0.00 0.00 0.00 71 1014.1
20190417133205 61 193 1.0 7.0 0.00 0.00 0.00 71 1014.1
20190417132705 61 146 2.0 7.0 0.00 0.00 0.00 71 1014.4
20190417131705 61 185 3.0 5.0 0.00 0.00 0.00 71 1014.5
20190417131205 61 154 2.0 5.0 0.00 0.00 0.00 72 1014.5
20190417130704 60 153 1.0 6.0 0.00 0.00 0.00 72 1014.6
20190417130205 60 163 2.0 6.0 0.00 0.00 0.00 72 1014.5
20190417124205 60 139 4.0 6.0 0.00 0.00 0.00 72 1014.7
20190417123705 60 177 3.0 6.0 0.00 0.00 0.00 71 1014.7
20190417115205 58 172 3.0 7.0 0.00 0.00 0.00 73 1014.4
20190417114705 58 148 3.0 6.0 0.00 0.00 0.00 72 1014.5
20190417113705 58 158 3.0 6.0 0.00 0.00 0.00 72 1014.4
20190417113205 58 181 3.0 6.0 0.00 0.00 0.00 72 1014.3
20190417111705 58 176 2.0 5.0 0.00 0.00 0.00 73 1014.4
20190417110205 58 157 2.0 4.0 0.00 0.00 0.00 73 1014.3
20190417105705 58 189 2.0 4.0 0.00 0.00 0.00 73
20190417104205 57 191 1.0 4.0 0.00 0.00 0.00 75 1014.0
20190417102707 56 137 1.0 3.0 0.00 0.00 0.00 76 1013.8